Werte bis 5 Uhr SommerzeitDiagramme Oberissigheim: Tagesdaten MonatsdatenCSV-Datei: Oberissigheim21.csv

Wetterdaten 2021 Station: Oberissigheim
Temperaturen in °C relative Nieder- Global- Wind Wind Wind- Sonnen-
Datum Boden Boden Luft Luft Luft Luft Feuchte schlag strahlung max richtung schein
20 cm 5 cm 20 cm 2 m 2 m max 2 m min % mm W/m2*d m/s m/s ° h

27.10.2021 10,8 9,4 3,8 6,3 7,0 5,6 100 0,0 0 0,4 1,4 --- ---
26.10.2021 10,4 10,3 10,1 10,4 17,5 6,5 89 0,0 1985 0,7 6,0 --- 6,5
25.10.2021 9,8 8,7 6,1 6,4 16,9 -0,3 87 0,1 2525 0,5 2,3 --- 7,4
24.10.2021 10,4 9,3 6,9 6,9 16,0 1,2 81 0,0 2878 1,4 6,6 --- 8,2
23.10.2021 11,0 10,5 8,4 8,4 14,1 3,8 88 0,5 1767 0,8 5,4 --- 5,9
22.10.2021 11,0 9,8 7,0 7,4 12,0 1,8 83 0,2 2266 1,5 12,0 --- 6,9
21.10.2021 12,3 12,1 11,6 12,0 15,7 5,6 78 9,0 1078 3,6 21,5 --- 3,8
20.10.2021 11,4 11,3 12,4 13,1 17,4 7,7 92 0,2 1133 1,9 9,3 --- 4,8
19.10.2021 11,3 10,6 9,0 9,5 14,5 5,6 99 5,4 630 0,5 3,7 --- 0,7
18.10.2021 11,7 11,0 8,5 8,5 12,4 5,3 94 0,0 1050 0,9 5,4 --- 4,4
17.10.2021 11,8 11,4 9,5 9,1 13,4 6,8 88 0,0 1825 0,6 4,2 --- 6,3
16.10.2021 11,6 10,9 7,7 7,3 16,2 1,5 90 0,2 2978 0,7 3,2 --- 7,8
15.10.2021 11,8 11,0 8,5 9,0 14,8 5,1 93 0,0 1557 0,9 5,3 --- 5,0
14.10.2021 11,9 11,3 9,4 9,3 13,5 6,0 94 0,1 815 0,9 4,3 --- 1,3
13.10.2021 11,9 11,0 8,1 7,9 13,3 3,7 92 0,5 2141 0,7 6,9 --- 7,7
12.10.2021 12,1 11,3 8,4 8,4 11,7 4,9 98 7,5 1231 0,7 6,4 --- 4,6
11.10.2021 12,4 10,9 6,2 6,2 12,9 1,6 97 0,0 1358 0,5 3,4 --- 4,8
10.10.2021 13,2 12,1 8,3 8,3 18,7 1,4 80 0,0 3545 0,8 3,6 --- 8,7
09.10.2021 13,7 12,8 10,8 10,7 18,3 4,6 78 0,0 3764 1,7 6,2 --- 9,0
08.10.2021 14,2 13,1 10,7 10,6 17,3 5,2 88 0,0 2436 1,9 6,3 --- 8,4
07.10.2021 14,8 14,5 12,5 11,8 19,0 7,7 87 0,2 3025 0,9 4,7 --- 8,3
06.10.2021 14,9 14,2 11,5 11,4 15,6 9,4 88 2,1 1962 1,8 10,2 --- 5,9
05.10.2021 15,3 15,0 13,3 12,8 18,0 10,5 91 5,9 1971 1,6 7,9 --- 6,1
04.10.2021 15,7 15,4 13,1 12,8 15,5 10,9 94 2,4 1391 1,0 4,3 --- 5,4
03.10.2021 16,1 15,9 17,8 18,2 20,9 14,3 68 1,5 609 3,0 9,0 --- 1,0
02.10.2021 15,7 15,6 15,7 15,6 22,3 9,2 74 0,1 3421 2,1 12,7 --- 8,0
01.10.2021 15,3 14,6 12,1 12,5 22,3 4,3 72 0,0 3955 0,9 7,1 --- 9,3
30.09.2021 15,5 14,5 10,7 11,0 17,1 5,7 77 0,0 3310 1,0 5,4 --- 8,9
29.09.2021 16,8 15,9 12,5 12,6 18,0 9,2 84 2,8 2364 1,2 14,4 --- 7,3
28.09.2021 17,7 17,5 14,3 14,2 22,4 9,8 83 0,4 3760 0,6 5,0 --- 9,1
27.09.2021 18,0 18,5 18,3 18,0 23,4 12,9 88 1,0 2507 1,2 11,9 --- 7,7
26.09.2021 17,7 17,9 17,9 17,9 24,4 12,7 87 1,3 2497 0,7 4,5 --- 7,4
25.09.2021 17,2 17,3 16,4 16,9 28,1 9,1 76 0,5 4455 0,7 4,9 --- 9,7
24.09.2021 17,0 17,2 16,6 16,6 24,0 11,8 77 0,0 2986 0,8 6,6 --- 7,4
23.09.2021 16,3 16,1 14,4 14,9 24,3 5,6 75 0,0 4501 1,1 7,3 --- 9,8
22.09.2021 16,1 15,5 12,2 12,2 22,3 5,6 82 0,0 4062 0,6 3,9 --- 9,7
21.09.2021 16,5 15,7 12,3 12,0 18,1 6,3 73 0,0 3403 1,6 4,9 --- 9,6
20.09.2021 17,2 16,5 13,9 13,3 18,7 10,9 72 0,0 2907 1,6 5,3 --- 7,6
19.09.2021 17,8 17,0 14,2 13,9 20,7 8,9 80 0,0 3311 1,7 7,5 --- 7,3
18.09.2021 18,3 18,0 15,4 15,1 21,7 10,0 84 0,0 4179 1,0 5,7 --- 10,1
17.09.2021 18,7 18,3 15,8 15,7 21,5 10,4 86 0,0 2638 0,3 2,7 --- 9,2
16.09.2021 19,5 19,3 17,1 16,8 19,0 14,9 83 1,3 2638 1,2 7,8 --- 7,8
15.09.2021 19,9 20,2 19,4 19,1 22,0 16,3 94 8,1 1716 0,9 5,8 --- 6,4
14.09.2021 19,6 19,9 19,7 19,7 30,4 11,6 76 0,0 4293 0,8 3,4 --- 9,4
13.09.2021 19,5 19,4 17,0 16,7 25,7 10,1 79 0,0 4883 0,9 3,7 --- 10,4
12.09.2021 20,0 20,1 18,6 18,2 26,0 13,4 80 0,0 3918 0,7 3,9 --- 9,8
11.09.2021 20,4 20,7 19,5 19,1 25,7 15,7 90 3,0 2639 0,8 7,0 --- 7,0
10.09.2021 20,6 21,1 20,5 20,4 27,0 16,7 80 1,9 3249 0,7 6,5 --- 8,5
09.09.2021 20,1 20,8 20,5 20,8 30,0 12,6 71 0,0 4962 0,9 6,1 --- 10,2
08.09.2021 19,9 20,3 20,4 20,1 28,9 12,0 66 0,0 5441 1,7 6,7 --- 11,0
07.09.2021 19,9 20,2 19,0 18,7 26,8 12,4 75 0,0 4658 1,0 3,6 --- 9,9
06.09.2021 19,8 20,3 19,2 19,3 28,8 11,4 71 0,0 5137 0,8 3,1 --- 10,8
05.09.2021 19,6 20,1 19,4 19,0 29,5 11,5 73 0,0 5692 1,5 7,0 --- 11,1
04.09.2021 19,2 19,7 18,9 18,7 30,1 10,0 73 0,0 5623 1,1 4,3 --- 10,7
03.09.2021 18,5 19,1 18,3 18,4 28,5 9,9 73 0,0 5881 0,9 4,5 --- 11,2
02.09.2021 17,9 17,9 16,7 16,2 24,7 8,7 79 0,0 5322 1,6 5,2 --- 11,3
01.09.2021 17,7 17,6 15,2 15,0 22,0 9,1 82 0,0 4884 1,4 4,8 --- 11,1
31.08.2021 17,6 17,6 16,3 16,0 22,2 11,4 82 0,0 4808 1,8 7,2 --- 11,1
30.08.2021 17,6 17,3 16,6 16,5 18,3 14,5 86 0,0 1977 2,5 9,5 --- 8,1
29.08.2021 18,0 17,5 14,9 14,9 17,0 13,5 95 8,8 1445 1,4 5,9 --- 5,1
28.08.2021 18,0 17,9 15,3 14,9 20,7 10,4 83 2,6 4379 1,0 6,9 --- 9,3
27.08.2021 18,3 17,7 14,5 14,3 18,0 10,1 86 0,4 2893 1,7 9,2 --- 9,6
26.08.2021 19,2 18,9 16,5 16,2 20,9 13,4 77 3,3 3470 1,8 9,3 --- 9,9
25.08.2021 19,1 19,2 16,8 16,5 24,2 8,9 72 0,0 6111 1,3 4,2 --- 11,4
24.08.2021 19,4 18,9 15,2 14,9 20,7 8,9 80 0,0 5464 2,1 8,2 --- 11,4
23.08.2021 19,8 19,7 17,0 16,8 22,2 12,8 89 2,6 4062 1,1 9,3 --- 10,1
22.08.2021 20,8 20,7 17,9 17,6 25,0 13,3 91 17,8 2479 1,4 11,9 --- 7,4
21.08.2021 20,6 21,3 20,8 20,3 29,6 12,2 74 0,0 5662 0,9 5,1 --- 11,8
20.08.2021 20,2 20,9 19,4 19,1 24,8 14,3 75 0,0 5277 0,9 5,2 --- 9,9
19.08.2021 19,7 19,9 19,1 18,8 23,0 15,9 78 0,0 2757 1,0 6,3 --- 8,7
18.08.2021 19,4 19,3 17,5 17,0 21,9 13,1 83 0,3 3202 0,9 5,2 --- 9,1
17.08.2021 19,8 18,8 14,3 14,1 19,2 9,8 82 1,0 3194 1,1 7,6 --- 8,8
16.08.2021 21,9 21,4 17,8 17,6 23,6 11,0 77 3,3 3101 1,8 13,0 --- 9,5
15.08.2021 22,6 23,3 21,5 21,8 32,0 13,2 68 0,0 6421 0,8 5,6 --- 12,3
14.08.2021 22,4 23,4 22,5 22,5 31,5 14,3 72 0,0 6947 0,9 6,2 --- 12,0
13.08.2021 21,9 22,9 22,6 22,8 32,4 14,9 75 6,1 5653 1,1 14,2 --- 11,2
12.08.2021 21,3 21,9 22,0 21,8 31,6 13,2 72 0,0 5249 0,7 2,8 --- 12,4
11.08.2021 20,8 21,6 20,5 20,5 28,9 12,1 71 0,0 6213 0,8 6,7 --- 12,2
10.08.2021 20,3 20,8 19,9 19,5 26,5 13,5 71 0,0 4825 1,2 8,1 --- 9,7
09.08.2021 19,8 19,9 17,6 18,0 24,5 10,5 70 0,0 5344 1,1 12,0 --- 11,1
08.08.2021 20,1 20,0 17,9 17,5 23,1 12,7 74 0,1 5173 2,0 15,3 --- 11,8
07.08.2021 20,4 20,2 18,2 18,1 23,4 13,6 81 1,6 2857 1,2 8,8 --- 10,1
06.08.2021 20,9 21,0 18,6 18,4 23,9 14,5 82 4,4 4401 1,7 11,9 --- 10,1
05.08.2021 21,2 21,7 19,0 18,7 27,6 13,5 81 22,0 5938 1,2 11,5 --- 10,8
04.08.2021 20,8 21,2 19,0 18,2 24,7 14,0 82 0,0 4628 1,0 5,4 --- 11,3
03.08.2021 20,8 20,6 17,3 16,4 23,6 12,6 88 3,9 4038 1,3 6,9 --- 9,5
02.08.2021 21,5 21,7 17,6 17,3 24,8 13,3 81 11,2 5457 1,1 9,7 --- 10,2
01.08.2021 21,6 22,0 19,2 18,5 26,0 13,5 70 0,0 5500 1,4 8,5 --- 12,1
31.07.2021 21,9 22,2 19,5 19,5 24,8 14,2 58 0,0 5829 1,8 9,8 --- 12,4
30.07.2021 21,6 22,5 20,4 20,8 28,8 10,9 62 0,0 7178 1,3 7,6 --- 12,3
29.07.2021 21,6 21,7 19,5 19,3 24,4 14,3 67 0,0 5602 1,6 8,6 --- 11,6
28.07.2021 21,9 22,2 19,6 19,2 26,0 14,7 85 2,1 4704 1,8 11,1 --- 11,5
27.07.2021 22,4 22,7 20,4 20,5 27,8 15,1 77 0,6 5074 1,8 8,5 --- 11,7
26.07.2021 22,7 23,5 21,4 21,6 28,3 15,2 75 0,1 6046 1,4 8,1 --- 12,3
25.07.2021 22,3 23,5 21,7 21,5 30,5 15,4 77 4,8 6292 1,2 5,9 --- 10,2
24.07.2021 22,3 22,5 20,8 20,5 29,2 14,1 77 0,8 4191 1,6 10,1 --- 11,5
23.07.2021 22,5 23,5 20,5 20,3 29,7 11,6 69 0,0 7378 1,2 4,9 --- 13,1
22.07.2021 22,2 23,0 19,7 19,4 26,7 11,8 68 0,0 7463 1,8 6,6 --- 13,3
21.07.2021 21,9 22,6 18,9 18,4 25,5 10,1 66 0,0 8260 1,6 5,9 --- 13,4
20.07.2021 21,7 22,2 18,2 17,8 23,8 10,6 69 0,0 8096 1,8 7,0 --- 13,3
19.07.2021 22,0 22,6 19,8 19,4 24,1 14,3 75 0,0 7572 2,6 10,5 --- 11,5
18.07.2021 21,5 22,4 21,1 20,8 27,8 13,1 71 0,0 8084 2,1 6,9 --- 13,3
17.07.2021 21,1 22,1 21,9 21,3 26,7 17,3 76 0,0 6669 2,9 8,7 --- 12,3
16.07.2021 20,4 21,0 19,8 19,0 24,4 14,3 87 0,2 5648 2,0 7,8 --- 11,7
15.07.2021 20,1 20,7 18,8 18,5 26,2 15,0 84 1,6 4614 1,1 5,7 --- 10,3
14.07.2021 20,1 19,9 17,5 17,0 19,8 15,6 87 0,3 2069 2,1 8,7 --- 7,1
13.07.2021 21,0 21,3 19,2 18,8 23,1 16,5 92 5,7 2499 1,5 8,5 --- 7,6
12.07.2021 20,7 21,4 20,8 20,3 28,1 12,1 76 0,0 6289 1,4 6,5 --- 13,4
11.07.2021 20,6 20,8 18,9 18,1 23,3 15,6 90 28,5 3640 0,9 4,9 --- 10,3
10.07.2021 20,3 21,2 20,3 20,0 26,9 11,8 73 0,8 6618 1,3 7,2 --- 13,3
09.07.2021 20,0 19,8 17,5 17,2 22,1 15,4 91 15,2 2619 1,4 9,0 --- 7,9
08.07.2021 21,1 21,3 19,0 18,6 27,3 15,1 84 0,9 3498 1,5 8,9 --- 9,7
07.07.2021 20,6 21,8 21,3 20,9 28,6 15,3 70 0,0 6815 1,2 7,2 --- 12,4
06.07.2021 20,3 20,2 18,8 18,7 25,6 14,9 86 2,5 2580 1,7 8,5 --- 9,7
05.07.2021 20,6 20,6 18,8 18,2 23,4 13,7 86 0,7 3387 2,1 8,0 --- 9,6
04.07.2021 21,6 22,1 20,0 19,6 28,3 15,7 83 4,0 4363 1,2 7,6 --- 11,0
03.07.2021 20,7 21,8 20,5 20,4 29,2 11,4 70 0,0 7482 0,8 3,5 --- 13,1
02.07.2021 19,5 20,1 18,8 18,1 24,2 13,1 71 0,2 6670 1,3 6,3 --- 12,5
01.07.2021 19,8 18,9 15,1 14,8 16,1 13,6 89 1,3 1693 1,2 7,2 --- 5,9
30.06.2021 21,4 21,1 17,6 16,9 21,5 14,0 85 29,7 4270 1,4 8,3 --- 10,5
29.06.2021 22,6 23,0 20,0 19,6 29,0 16,1 87 9,1 4806 1,6 22,0 --- 8,4
28.06.2021 22,5 24,0 23,8 23,9 32,8 17,0 70 12,7 6882 1,3 24,9 --- 12,0
27.06.2021 21,7 22,7 22,4 22,0 30,1 14,3 69 0,0 6859 1,6 5,9 --- 11,9
26.06.2021 20,9 21,8 20,5 20,3 28,1 12,2 69 0,0 7627 0,8 5,4 --- 13,7
25.06.2021 20,2 20,6 19,4 18,8 23,9 15,1 79 0,0 4885 1,2 6,3 --- 12,2
24.06.2021 20,8 20,2 17,2 16,9 19,2 15,5 93 13,0 2178 1,8 5,6 --- 6,5
23.06.2021 21,0 21,4 19,6 18,8 25,6 13,4 82 0,0 6373 2,2 6,8 --- 12,5
22.06.2021 22,0 21,2 17,4 16,8 21,2 13,9 83 3,3 4451 2,5 6,3 --- 10,2
21.06.2021 23,8 24,0 21,4 20,8 27,8 16,3 76 2,5 6327 2,8 10,3 --- 13,1
20.06.2021 25,3 26,7 26,2 25,6 30,9 18,5 62 29,1 6035 2,2 11,2 --- 12,5
19.06.2021 25,4 27,4 27,5 27,6 33,9 21,0 56 0,0 7669 1,0 4,7 --- 12,6
18.06.2021 24,7 26,5 27,2 26,9 37,2 18,3 56 0,0 7856 1,3 6,2 --- 13,2
17.06.2021 23,9 25,9 27,3 27,2 36,3 15,9 53 0,0 8228 1,6 9,3 --- 13,6
16.06.2021 23,1 24,8 24,9 24,5 34,0 15,8 63 0,0 7636 1,7 6,5 --- 13,0
15.06.2021 22,2 23,7 22,3 22,0 31,8 11,8 64 0,0 8146 1,1 5,0 --- 13,8
14.06.2021 21,2 22,5 20,6 20,1 28,5 9,5 59 0,0 8928 1,3 5,7 --- 14,1
13.06.2021 20,5 21,2 17,9 17,2 23,3 9,7 61 0,0 9072 1,9 6,9 --- 14,0
12.06.2021 21,3 21,8 20,4 20,1 25,8 15,2 69 0,0 5527 2,2 10,8 --- 12,2
11.06.2021 21,3 22,9 22,7 22,5 29,2 14,1 64 0,0 8298 1,2 5,6 --- 13,5
10.06.2021 20,8 22,4 21,9 21,4 27,6 14,3 72 0,1 8031 1,3 6,7 --- 13,3
09.06.2021 20,0 21,7 21,6 20,7 28,3 15,0 78 1,5 7682 1,6 7,3 --- 12,3
08.06.2021 18,5 19,9 20,3 19,4 25,1 8,8 80 0,3 6593 1,7 6,4 --- 12,6
07.06.2021 18,3 18,6 17,8 17,4 26,0 15,0 90 10,0 3240 2,4 5,7 --- 10,3
06.06.2021 19,0 19,3 17,8 17,4 29,2 15,7 89 3,6 3118 2,7 7,7 --- 6,8
05.06.2021 19,6 20,5 19,4 18,9 25,2 14,5 88 17,1 4519 1,1 6,6 --- 9,6
04.06.2021 19,6 21,1 20,8 20,9 28,8 14,9 81 0,2 6138 0,9 8,3 --- 10,3
03.06.2021 18,7 20,0 20,3 20,5 30,0 10,8 65 5,6 6680 1,4 10,4 --- 12,5
02.06.2021 17,9 19,1 19,7 20,2 28,4 9,4 52 0,0 8548 1,4 7,8 --- 13,6
01.06.2021 17,1 18,1 18,4 18,7 26,5 10,0 50 0,0 8512 1,7 7,1 --- 13,8
31.05.2021 16,2 17,1 16,4 16,4 25,7 6,7 57 0,0 8726 1,3 6,7 --- 13,8
30.05.2021 15,4 15,9 14,8 14,4 21,3 6,0 64 0,0 8805 2,5 10,1 --- 13,8
29.05.2021 14,7 15,3 13,9 13,7 20,8 5,6 67 0,0 8451 2,0 6,8 --- 13,7
28.05.2021 13,4 14,2 13,4 12,8 18,8 7,6 75 0,0 6296 1,3 7,0 --- 12,6
27.05.2021 12,5 12,5 10,5 10,3 14,5 6,4 89 5,0 2816 1,4 8,8 --- 8,2
26.05.2021 12,8 12,6 10,2 9,9 15,6 7,7 93 18,8 2491 1,8 12,9 --- 7,2
25.05.2021 13,7 13,4 10,1 9,8 15,5 7,6 82 4,9 3472 2,7 15,9 --- 8,4
24.05.2021 14,2 14,7 12,9 13,0 23,2 5,9 70 1,6 6300 2,0 12,6 --- 9,9
23.05.2021 13,7 14,2 12,7 12,2 18,8 6,7 70 0,3 5976 1,9 10,7 --- 11,9
22.05.2021 13,6 13,6 12,5 12,0 17,2 8,0 72 12,1 4997 2,8 12,4 --- 11,9
21.05.2021 14,2 14,5 14,7 14,2 18,4 10,2 62 0,0 5180 2,9 14,1 --- 12,1
20.05.2021 14,1 14,7 13,5 13,0 18,7 8,7 72 0,7 5163 1,2 6,9 --- 11,4
19.05.2021 13,8 13,9 11,1 10,9 18,6 4,7 79 7,3 4365 1,0 8,8 --- 9,8
18.05.2021 13,8 14,5 12,4 11,9 17,2 8,4 79 4,1 6065 1,8 9,2 --- 11,7
17.05.2021 13,5 13,9 11,9 11,6 16,9 8,4 88 6,2 4296 1,8 12,2 --- 10,3
16.05.2021 13,3 13,6 12,0 11,6 18,6 8,5 86 8,8 3952 2,2 9,5 --- 10,0
15.05.2021 14,0 13,8 11,8 11,5 15,2 8,0 81 3,2 3796 2,7 10,6 --- 9,9
14.05.2021 14,7 15,5 14,4 14,0 19,8 9,5 66 0,5 5726 1,2 7,9 --- 11,6
13.05.2021 14,0 15,0 14,0 13,7 21,2 7,5 73 0,0 5930 1,2 9,4 --- 10,3
12.05.2021 13,7 14,5 14,2 13,6 16,7 10,9 81 0,2 3702 1,0 5,8 --- 11,1
11.05.2021 13,7 14,3 14,3 14,0 16,9 12,0 92 2,9 2236 1,4 5,4 --- 7,7
10.05.2021 14,1 15,4 17,0 17,0 22,8 13,1 72 2,1 3147 1,3 10,9 --- 8,8
09.05.2021 12,2 14,3 18,1 18,6 28,9 5,9 54 0,0 7206 2,2 12,9 --- 12,0
08.05.2021 10,3 10,6 9,9 10,2 18,2 -0,6 60 0,0 6264 2,0 9,3 --- 12,7
07.05.2021 10,4 10,0 7,7 7,4 11,7 3,2 72 1,5 4899 2,4 16,3 --- 12,0
06.05.2021 10,7 10,3 7,5 7,2 12,5 4,5 81 6,2 3397 2,0 9,1 --- 8,5
05.05.2021 11,0 11,0 8,8 8,4 12,6 5,6 67 1,3 4913 2,5 18,7 --- 10,2
04.05.2021 11,6 10,9 10,5 10,5 13,2 8,1 61 0,1 1421 4,0 18,8 --- 4,0
03.05.2021 11,7 12,0 9,0 9,1 15,9 0,8 55 0,0 6391 1,6 10,2 --- 12,5
02.05.2021 11,9 11,9 9,9 9,3 12,5 5,0 54 0,0 4847 2,9 11,2 --- 11,3
01.05.2021 11,6 12,1 11,1 10,6 14,6 5,2 61 0,0 4774 1,6 8,6 --- 11,5
30.04.2021 11,7 11,0 8,1 7,7 12,2 1,8 72 0,0 3010 0,9 4,8 --- 10,5
29.04.2021 13,3 13,7 12,3 11,8 17,6 6,3 72 3,0 5300 2,7 13,0 --- 11,6
28.04.2021 12,9 13,8 12,9 12,8 22,9 2,3 53 0,8 6580 2,3 10,3 --- 11,1
27.04.2021 12,3 12,9 11,2 10,7 18,4 2,0 39 0,0 7457 2,1 6,2 --- 12,5
26.04.2021 11,6 11,7 8,9 8,4 15,7 -0,3 46 0,0 7577 3,1 8,7 --- 12,5
25.04.2021 11,6 11,4 7,7 7,4 13,5 0,8 61 0,0 7319 3,6 8,9 --- 12,4
24.04.2021 11,5 11,7 8,9 8,6 16,0 0,6 62 0,0 6971 3,1 9,6 --- 12,2
23.04.2021 11,2 11,4 8,2 8,0 16,2 -0,9 61 0,0 7314 2,1 6,6 --- 12,3
22.04.2021 11,3 11,4 8,8 8,4 14,5 2,3 58 0,0 6930 3,0 9,6 --- 11,9
21.04.2021 11,1 11,9 11,0 11,2 18,5 2,4 69 0,0 6258 1,9 8,0 --- 11,8
20.04.2021 9,8 10,8 10,2 10,4 18,7 0,9 69 0,0 6717 1,1 5,3 --- 11,9
19.04.2021 9,2 9,9 9,5 9,2 14,2 4,5 84 0,9 3135 1,6 4,9 --- 8,9
18.04.2021 8,1 8,7 9,1 8,5 13,9 4,8 80 2,5 3793 1,5 5,8 --- 10,5
17.04.2021 7,5 7,4 6,4 6,2 10,1 0,4 68 0,0 3660 2,4 10,4 --- 9,3
16.04.2021 7,2 6,7 5,3 5,0 8,7 0,7 70 0,0 2891 1,9 7,3 --- 10,2
15.04.2021 7,4 6,6 3,8 3,6 9,6 -2,3 73 0,0 4837 3,0 9,0 --- 11,5
14.04.2021 7,6 7,2 3,6 3,4 9,7 -1,6 74 0,1 5577 2,1 11,4 --- 10,9
13.04.2021 7,5 7,1 3,6 3,4 11,2 -2,8 76 0,0 5761 1,8 9,9 --- 10,9
12.04.2021 7,9 7,6 5,0 4,6 9,0 0,5 77 0,3 4129 1,9 8,3 --- 9,2
11.04.2021 8,4 8,7 8,6 8,7 16,2 3,4 86 5,1 2248 2,7 10,2 --- 6,0
10.04.2021 8,1 8,5 9,1 9,1 11,4 6,8 87 3,5 1171 1,3 5,1 --- 2,8
09.04.2021 6,6 7,1 7,9 8,1 17,3 -2,2 54 0,0 5529 1,4 8,9 --- 10,7
08.04.2021 5,6 5,3 4,5 4,0 10,1 -0,4 60 0,0 3804 2,0 8,4 --- 11,5
07.04.2021 5,8 4,5 2,1 2,0 4,8 -0,1 75 1,1 1391 3,0 13,0 --- 4,6
06.04.2021 6,4 5,2 2,9 2,5 7,9 -1,4 67 0,1 4012 3,7 15,8 --- 9,0
05.04.2021 8,2 6,6 2,6 2,8 7,2 -0,7 79 1,8 1301 3,0 15,8 --- 3,7
04.04.2021 9,2 8,7 5,5 5,2 12,0 -1,8 69 0,0 4599 1,7 6,5 --- 10,5
03.04.2021 9,9 9,4 7,1 6,9 11,9 1,6 59 0,0 5242 3,2 9,8 --- 11,2
02.04.2021 10,9 10,3 8,5 8,0 13,6 4,0 65 0,0 3805 3,6 10,9 --- 8,3
01.04.2021 11,5 12,4 14,1 14,2 24,9 5,0 59 0,0 4873 1,9 10,1 --- 10,4
31.03.2021 10,8 11,8 14,3 14,9 27,6 2,6 52 0,0 5441 1,2 5,9 --- 10,6
30.03.2021 9,8 10,9 12,8 13,4 26,6 1,8 55 0,0 5505 1,1 3,3 --- 10,8
29.03.2021 8,7 9,7 12,6 13,0 22,2 5,1 51 0,0 5057 1,5 6,7 --- 10,2
28.03.2021 7,8 8,2 9,4 9,1 15,5 2,5 65 0,0 4191 1,6 9,0 --- 9,1
27.03.2021 8,3 8,3 8,2 8,0 11,2 3,0 66 0,5 3313 3,1 17,0 --- 9,0
26.03.2021 8,1 9,1 11,6 11,5 17,6 6,3 62 0,0 4284 1,8 7,9 --- 10,1
25.03.2021 7,1 7,7 8,8 8,8 16,7 0,7 68 0,0 4060 1,1 6,6 --- 9,0
24.03.2021 6,1 6,5 7,0 7,1 16,6 -1,3 69 0,0 5013 1,3 5,7 --- 10,4
23.03.2021 5,9 6,0 6,0 6,1 9,3 2,6 75 0,0 1538 0,8 5,1 --- 7,0
22.03.2021 5,5 5,5 5,6 5,3 7,8 3,3 76 0,0 1817 2,0 7,2 --- 7,0
21.03.2021 5,4 5,3 5,6 5,4 9,2 2,8 66 0,0 2160 2,9 11,8 --- 7,8
20.03.2021 4,8 4,3 2,2 1,9 6,0 -1,9 59 0,0 4039 1,4 8,3 --- 9,4
19.03.2021 5,6 4,9 2,6 2,4 6,2 -1,0 82 1,2 3408 3,0 12,5 --- 8,9
18.03.2021 5,2 4,8 2,6 2,5 8,7 -2,3 81 0,3 3663 1,2 10,2 --- 8,6
17.03.2021 5,6 5,0 2,7 2,8 6,7 -0,6 84 0,3 2380 2,2 8,4 --- 6,5
16.03.2021 6,0 5,8 5,4 5,3 10,2 2,7 77 0,5 1987 2,2 10,7 --- 6,3
15.03.2021 6,0 6,0 5,6 5,4 9,9 2,8 83 2,7 2559 3,0 12,4 --- 6,4
14.03.2021 6,0 5,8 5,1 4,9 8,3 2,7 83 2,6 2419 1,8 10,2 --- 7,8
13.03.2021 6,3 6,2 6,3 6,6 8,9 4,3 82 5,0 1473 4,0 16,3 --- 4,2
12.03.2021 6,4 6,5 7,1 7,1 11,0 3,6 72 3,0 2689 3,3 16,3 --- 7,3
11.03.2021 6,0 6,6 8,9 9,0 15,0 6,1 76 2,5 1685 3,8 15,5 --- 3,8
10.03.2021 5,4 5,8 6,7 6,5 10,3 3,1 77 0,0 2383 1,4 6,9 --- 8,1
09.03.2021 4,6 4,4 3,8 3,6 8,5 -0,2 79 0,2 2126 1,0 6,5 --- 6,4
08.03.2021 4,5 3,5 1,0 1,0 6,0 -3,7 82 0,0 1845 0,8 3,2 --- 7,4
07.03.2021 4,9 4,1 2,1 2,2 9,7 -3,9 66 0,0 4332 1,4 5,7 --- 9,6
06.03.2021 5,0 4,1 1,9 1,8 9,3 -3,9 68 0,1 4280 1,5 5,4 --- 9,6
05.03.2021 6,5 5,7 3,2 3,4 6,5 -0,6 80 0,6 1875 3,4 10,0 --- 7,0
04.03.2021 6,8 7,2 7,9 7,8 14,2 3,4 82 10,3 2464 1,6 8,4 --- 6,6
03.03.2021 6,4 6,2 6,1 6,3 16,0 -0,6 78 0,0 2813 1,1 4,2 --- 7,9
02.03.2021 6,2 6,4 7,7 7,8 17,5 1,1 72 0,0 3650 1,3 3,6 --- 8,9
01.03.2021 5,8 5,4 5,4 5,3 14,9 -1,0 80 0,0 3729 2,3 5,9 --- 9,2
28.02.2021 5,8 5,7 6,2 5,7 12,4 -0,5 72 0,0 3594 1,9 6,1 --- 8,7
27.02.2021 5,6 5,0 3,7 3,6 8,3 -0,4 87 0,1 3226 2,4 8,1 --- 8,7
26.02.2021 6,8 6,1 4,3 4,8 7,1 2,0 91 1,2 803 1,9 10,3 --- 1,5
25.02.2021 7,4 7,8 10,1 10,6 20,4 2,9 71 0,0 3152 0,8 4,5 --- 8,4
24.02.2021 6,8 7,6 10,8 11,0 20,9 3,8 78 0,0 2862 0,9 5,0 --- 8,1
23.02.2021 5,1 5,7 9,7 9,8 19,6 3,2 77 0,0 2871 1,2 6,6 --- 7,4
22.02.2021 3,5 3,8 4,6 5,8 10,9 1,7 84 0,0 2483 1,4 4,0 --- 7,8
21.02.2021 4,5 5,1 7,6 8,4 20,7 0,9 78 0,0 3038 1,1 3,4 --- 8,3
20.02.2021 4,4 5,1 8,3 8,9 17,0 3,2 78 0,0 2575 1,4 8,5 --- 7,6
19.02.2021 3,2 4,1 5,8 5,5 11,0 0,5 81 0,0 2446 2,0 10,6 --- 7,4
18.02.2021 2,1 2,5 3,6 4,4 8,3 0,1 88 0,0 1315 1,0 4,1 --- 5,6
17.02.2021 1,7 1,5 6,0 6,2 10,8 3,5 89 1,2 1464 3,2 7,6 --- 5,3
16.02.2021 1,6 1,0 3,2 3,3 9,2 0,1 92 2,7 1789 1,7 4,1 --- 6,2
15.02.2021 1,5 0,6 -1,4 -1,8 1,0 -4,3 74 0,0 718 2,2 6,3 --- 2,6
14.02.2021 1,7 0,6 -5,2 -5,1 2,2 -11,5 77 0,0 2855 1,4 1,4 --- 7,8
13.02.2021 1,8 0,9 -5,7 -5,8 0,3 -9,5 75 0,0 2839 2,9 4,3 --- 7,7
12.02.2021 2,0 1,1 -5,4 -5,8 -1,7 -8,6 82 0,0 2415 3,6 5,9 --- 6,7
11.02.2021 2,1 1,2 -5,1 -5,1 -1,1 -9,3 90 0,1 2451 1,6 3,2 --- 6,7
10.02.2021 2,4 1,3 -8,0 -8,2 -4,3 -11,5 84 0,0 2359 4,3 8,2 --- 7,2
09.02.2021 2,8 1,7 -7,9 -8,1 -5,6 -10,5 84 0,0 2127 3,2 3,9 --- 5,8
08.02.2021 3,4 2,2 -5,0 -5,4 -3,5 -7,1 94 0,0 888 3,9 5,8 --- 3,7
07.02.2021 4,6 3,8 1,3 1,3 3,6 -3,7 96 5,4 317 3,2 8,3 --- ---
06.02.2021 5,4 5,1 4,5 4,8 5,6 3,5 96 9,9 183 2,5 7,6 --- ---
05.02.2021 5,7 5,4 5,0 5,1 7,0 2,6 95 3,4 599 0,7 3,0 --- ---
04.02.2021 6,3 6,6 7,8 7,7 12,5 4,2 81 1,5 2080 1,8 8,9 --- 6,5
03.02.2021 5,5 6,4 9,2 9,5 11,6 8,2 97 19,2 402 2,0 9,7 --- 0,1
02.02.2021 4,1 4,4 6,2 6,2 9,6 3,8 99 5,1 505 1,3 5,5 --- 0,2
01.02.2021 3,2 3,1 2,8 2,6 4,2 1,0 97 1,9 625 1,6 4,5 --- 0,7
31.01.2021 3,4 2,5 0,5 0,4 1,8 -1,9 89 0,8 1011 2,5 6,4 --- 4,0
30.01.2021 4,7 4,5 3,3 3,5 7,8 0,1 93 3,2 587 2,5 9,5 --- 1,1
29.01.2021 4,4 5,2 7,4 7,8 10,6 5,6 92 3,9 768 2,3 12,5 --- 2,8
28.01.2021 2,7 2,9 4,3 4,4 8,9 2,0 99 0,0 359 1,9 6,5 --- 0,1
27.01.2021 2,2 1,5 0,6 0,7 2,2 -1,0 96 0,0 478 2,1 8,6 --- 0,6
26.01.2021 2,4 1,8 1,4 1,6 3,7 -1,2 90 0,0 481 2,1 9,8 --- 0,5
25.01.2021 2,6 1,9 0,2 0,1 2,4 -1,0 96 0,2 682 0,6 4,0 --- 2,5
24.01.2021 3,2 2,4 1,1 1,3 3,2 -0,3 94 9,8 514 2,4 9,4 --- 0,8
23.01.2021 3,9 3,4 2,5 2,7 4,7 0,5 96 0,0 535 1,7 6,4 --- 0,4
22.01.2021 4,7 5,1 5,6 5,8 10,8 1,4 88 7,9 578 3,5 17,3 --- 0,3
21.01.2021 3,5 4,1 8,1 8,4 11,4 6,7 70 1,0 416 4,7 15,6 --- 0,2
20.01.2021 2,2 2,1 4,7 5,2 9,8 0,5 71 0,0 1254 2,4 9,1 --- 4,1
19.01.2021 2,0 1,8 2,5 2,8 3,9 0,8 88 2,9 307 3,3 13,9 --- ---
18.01.2021 1,5 1,1 2,4 2,6 5,0 0,0 91 0,8 781 1,6 7,1 --- 3,2
17.01.2021 1,4 0,5 -0,8 -1,0 1,3 -2,5 98 1,9 708 1,1 3,8 --- 2,0
16.01.2021 1,4 0,5 -0,9 -0,9 0,4 -2,0 76 0,0 592 1,8 6,8 --- 1,0
15.01.2021 1,6 0,6 -1,3 -0,9 1,1 -3,5 89 0,0 640 1,4 4,6 --- 0,5
14.01.2021 2,0 1,3 0,9 1,1 3,0 -0,5 80 0,0 680 1,9 8,1 --- 1,9
13.01.2021 1,8 1,0 1,1 1,4 5,0 -0,9 87 0,0 990 1,6 8,1 --- 4,2
12.01.2021 1,8 0,8 1,2 1,5 3,3 0,4 92 3,2 285 3,1 10,7 --- ---
11.01.2021 2,0 0,8 -1,7 -1,8 3,0 -6,1 86 0,1 1492 1,7 9,5 --- 5,7
10.01.2021 2,6 1,5 -0,4 -0,6 5,0 -3,8 92 0,0 1410 0,8 2,6 --- 4,8
09.01.2021 2,9 2,0 0,9 0,7 6,7 -1,3 91 0,1 1175 1,4 6,0 --- 3,3
08.01.2021 3,1 2,3 2,1 1,4 2,5 0,4 95 0,3 406 2,4 7,1 --- ---
07.01.2021 3,3 2,5 1,5 1,3 2,6 0,8 92 0,0 397 1,8 5,6 --- 0,5
06.01.2021 3,3 2,7 1,5 1,6 2,8 0,3 96 1,4 304 1,5 5,7 --- ---
05.01.2021 3,3 2,6 1,8 1,9 3,5 0,9 95 0,5 429 2,1 7,3 --- 0,4
04.01.2021 3,2 2,4 1,0 1,1 2,3 0,1 96 0,7 326 1,4 4,2 --- ---
03.01.2021 3,3 2,2 0,3 0,4 2,5 -1,9 92 1,5 345 1,7 5,3 --- ---
02.01.2021 3,9 3,0 1,0 1,2 3,4 -1,2 97 0,0 628 1,6 4,8 --- 1,6
01.01.2021 4,1 3,6 2,4 2,5 3,7 1,0 98 0,5 318 0,6 3,2 --- 0,4

Mittelwerte (Temperaturen, Strahlung, rel. Feuchte, Wind), Summe (Regen) für 2021
13,0 13,1 11,7 11,6 78 583 3.814 1,7

Landesbetrieb Landwirtschaft Hessen 2009

      Werte bis 5 Uhr SommerzeitCSV-Datei: Oberissigheim21.csvDiagramm: Oberissigheim